sensor_id;sensor_type;location;lat;lon;timestamp;pressure;altitude;pressure_sealevel;temperature;humidity
68226;BME280;55045;49.410;11.030;2023-05-11T00:01:58;97844.53;;;11.23;100.00
68226;BME280;55045;49.410;11.030;2023-05-11T00:05:02;97845.88;;;11.15;100.00
68226;BME280;55045;49.410;11.030;2023-05-11T00:08:06;97847.22;;;11.22;100.00
68226;BME280;55045;49.410;11.030;2023-05-11T00:11:10;97848.22;;;10.88;100.00
68226;BME280;55045;49.410;11.030;2023-05-11T00:14:13;97845.94;;;10.82;100.00
68226;BME280;55045;49.410;11.030;2023-05-11T00:17:16;97843.59;;;10.93;100.00
68226;BME280;55045;49.410;11.030;2023-05-11T00:20:21;97844.53;;;11.23;100.00
68226;BME280;55045;49.410;11.030;2023-05-11T00:23:26;97840.34;;;11.21;100.00
68226;BME280;55045;49.410;11.030;2023-05-11T00:26:29;97839.00;;;10.82;100.00
68226;BME280;55045;49.410;11.030;2023-05-11T00:29:32;97834.75;;;10.97;100.00
68226;BME280;55045;49.410;11.030;2023-05-11T00:32:35;97832.66;;;10.88;100.00
68226;BME280;55045;49.410;11.030;2023-05-11T00:35:38;97833.41;;;11.06;100.00
68226;BME280;55045;49.410;11.030;2023-05-11T00:38:43;97830.13;;;10.86;100.00
68226;BME280;55045;49.410;11.030;2023-05-11T00:41:46;97832.25;;;10.95;100.00
68226;BME280;55045;49.410;11.030;2023-05-11T00:44:50;97828.38;;;10.87;100.00
68226;BME280;55045;49.410;11.030;2023-05-11T00:47:53;97837.00;;;10.87;100.00
68226;BME280;55045;49.410;11.030;2023-05-11T00:50:57;97832.91;;;10.83;100.00
68226;BME280;55045;49.410;11.030;2023-05-11T00:54:02;97815.72;;;10.81;100.00
68226;BME280;55045;49.410;11.030;2023-05-11T00:57:06;97832.22;;;10.80;100.00
68226;BME280;55045;49.410;11.030;2023-05-11T01:00:10;97823.06;;;10.73;100.00
68226;BME280;55045;49.410;11.030;2023-05-11T01:03:14;97811.03;;;10.56;100.00
68226;BME280;55045;49.410;11.030;2023-05-11T01:06:24;97827.44;;;10.72;100.00
68226;BME280;55045;49.410;11.030;2023-05-11T01:09:38;97828.22;;;10.74;100.00
68226;BME280;55045;49.410;11.030;2023-05-11T01:12:53;97830.59;;;10.61;100.00
68226;BME280;55045;49.410;11.030;2023-05-11T01:16:02;97824.25;;;10.67;100.00
68226;BME280;55045;49.410;11.030;2023-05-11T01:19:14;97830.28;;;10.67;100.00
68226;BME280;55045;49.410;11.030;2023-05-11T01:22:30;97832.97;;;10.66;100.00
68226;BME280;55045;49.410;11.030;2023-05-11T01:25:52;97829.13;;;10.73;100.00
68226;BME280;55045;49.410;11.030;2023-05-11T01:29:09;97832.22;;;10.64;100.00
68226;BME280;55045;49.410;11.030;2023-05-11T01:32:18;97830.59;;;10.61;100.00
68226;BME280;55045;49.410;11.030;2023-05-11T01:35:24;97834.81;;;10.64;100.00
68226;BME280;55045;49.410;11.030;2023-05-11T01:38:31;97832.44;;;10.59;100.00
68226;BME280;55045;49.410;11.030;2023-05-11T01:41:37;97826.41;;;10.59;100.00
68226;BME280;55045;49.410;11.030;2023-05-11T01:44:42;97822.41;;;10.53;100.00
68226;BME280;55045;49.410;11.030;2023-05-11T01:47:51;97834.38;;;10.56;100.00
68226;BME280;55045;49.410;11.030;2023-05-11T01:50:59;97837.31;;;10.65;100.00
68226;BME280;55045;49.410;11.030;2023-05-11T01:54:05;97832.44;;;10.59;100.00
68226;BME280;55045;49.410;11.030;2023-05-11T01:57:10;97770.06;;;10.29;100.00
68226;BME280;55045;49.410;11.030;2023-05-11T02:00:15;97831.06;;;10.52;100.00
68226;BME280;55045;49.410;11.030;2023-05-11T02:03:21;97827.72;;;10.50;100.00
68226;BME280;55045;49.410;11.030;2023-05-11T02:06:25;97834.00;;;10.46;100.00
68226;BME280;55045;49.410;11.030;2023-05-11T02:09:31;97822.53;;;10.50;100.00
68226;BME280;55045;49.410;11.030;2023-05-11T02:12:37;97813.81;;;10.35;100.00
68226;BME280;55045;49.410;11.030;2023-05-11T02:15:41;97824.38;;;10.48;100.00
68226;BME280;55045;49.410;11.030;2023-05-11T02:18:47;97827.91;;;10.47;100.00
68226;BME280;55045;49.410;11.030;2023-05-11T02:21:52;97823.03;;;10.41;100.00
68226;BME280;55045;49.410;11.030;2023-05-11T02:24:55;97824.88;;;10.39;100.00
68226;BME280;55045;49.410;11.030;2023-05-11T02:27:58;97820.59;;;10.38;100.00
68226;BME280;55045;49.410;11.030;2023-05-11T02:31:05;97828.72;;;10.32;100.00
68226;BME280;55045;49.410;11.030;2023-05-11T02:34:17;97826.13;;;10.32;100.00
68226;BME280;55045;49.410;11.030;2023-05-11T02:37:24;97817.09;;;10.39;100.00
68226;BME280;55045;49.410;11.030;2023-05-11T02:40:32;97818.19;;;10.35;100.00
68226;BME280;55045;49.410;11.030;2023-05-11T02:43:38;97816.41;;;10.35;100.00
68226;BME280;55045;49.410;11.030;2023-05-11T02:46:46;97822.44;;;10.36;100.00
68226;BME280;55045;49.410;11.030;2023-05-11T02:49:54;97816.34;;;10.37;100.00
68226;BME280;55045;49.410;11.030;2023-05-11T02:53:05;97819.66;;;10.23;100.00
68226;BME280;55045;49.410;11.030;2023-05-11T02:56:10;97820.50;;;10.24;100.00
68226;BME280;55045;49.410;11.030;2023-05-11T02:59:14;97817.25;;;10.19;100.00
68226;BME280;55045;49.410;11.030;2023-05-11T03:02:17;97817.50;;;10.14;100.00
68226;BME280;55045;49.410;11.030;2023-05-11T03:05:22;97811.41;;;10.15;100.00
68226;BME280;55045;49.410;11.030;2023-05-11T03:08:26;97811.41;;;10.15;100.00
68226;BME280;55045;49.410;11.030;2023-05-11T03:11:29;97817.13;;;10.04;100.00
68226;BME280;55045;49.410;11.030;2023-05-11T03:14:33;97809.50;;;10.01;100.00
68226;BME280;55045;49.410;11.030;2023-05-11T03:17:38;97810.34;;;10.02;100.00
68226;BME280;55045;49.410;11.030;2023-05-11T03:20:47;97814.91;;;9.97;100.00
68226;BME280;55045;49.410;11.030;2023-05-11T03:23:52;97809.56;;;10.00;100.00
68226;BME280;55045;49.410;11.030;2023-05-11T03:26:56;97814.75;;;10.00;100.00
68226;BME280;55045;49.410;11.030;2023-05-11T03:30:03;97794.97;;;9.81;100.00
68226;BME280;55045;49.410;11.030;2023-05-11T03:34:39;97806.28;;;10.31;100.00
68226;BME280;55045;49.410;11.030;2023-05-11T03:37:47;97804.56;;;9.97;100.00
68226;BME280;55045;49.410;11.030;2023-05-11T03:40:53;97780.50;;;9.77;100.00
68226;BME280;55045;49.410;11.030;2023-05-11T03:43:59;97797.69;;;9.96;100.00
68226;BME280;55045;49.410;11.030;2023-05-11T03:47:05;97797.63;;;9.97;100.00
68226;BME280;55045;49.410;11.030;2023-05-11T03:50:12;97803.97;;;10.42;100.00
68226;BME280;55045;49.410;11.030;2023-05-11T03:53:17;97787.78;;;9.87;100.00
68226;BME280;55045;49.410;11.030;2023-05-11T03:56:22;97805.25;;;9.83;100.00
68226;BME280;55045;49.410;11.030;2023-05-11T03:59:25;97799.81;;;10.05;100.00
68226;BME280;55045;49.410;11.030;2023-05-11T04:02:29;97787.25;;;9.80;100.00
68226;BME280;55045;49.410;11.030;2023-05-11T04:05:34;97795.03;;;9.80;100.00
68226;BME280;55045;49.410;11.030;2023-05-11T04:08:40;97793.22;;;9.82;100.00
68226;BME280;55045;49.410;11.030;2023-05-11T04:11:43;97792.91;;;9.88;100.00
68226;BME280;55045;49.410;11.030;2023-05-11T04:14:46;97787.72;;;9.88;100.00
68226;BME280;55045;49.410;11.030;2023-05-11T04:17:49;97779.41;;;9.99;100.00
68226;BME280;55045;49.410;11.030;2023-05-11T04:20:54;97792.53;;;9.96;100.00
68226;BME280;55045;49.410;11.030;2023-05-11T04:23:57;97792.59;;;9.94;100.00
68226;BME280;55045;49.410;11.030;2023-05-11T04:27:00;97797.50;;;9.83;100.00
68226;BME280;55045;49.410;11.030;2023-05-11T04:30:05;97812.41;;;9.78;100.00
68226;BME280;55045;49.410;11.030;2023-05-11T04:33:09;97801.97;;;9.79;100.00
68226;BME280;55045;49.410;11.030;2023-05-11T04:36:15;97803.19;;;9.90;100.00
68226;BME280;55045;49.410;11.030;2023-05-11T04:39:19;97810.44;;;9.83;100.00
68226;BME280;55045;49.410;11.030;2023-05-11T04:42:22;97795.03;;;9.80;100.00
68226;BME280;55045;49.410;11.030;2023-05-11T04:45:28;97804.81;;;9.92;100.00
68226;BME280;55045;49.410;11.030;2023-05-11T04:48:32;97805.53;;;10.12;100.00
68226;BME280;55045;49.410;11.030;2023-05-11T04:51:36;97806.84;;;10.03;100.00
68226;BME280;55045;49.410;11.030;2023-05-11T04:54:40;97803.41;;;10.02;100.00
68226;BME280;55045;49.410;11.030;2023-05-11T04:57:44;97799.44;;;9.95;100.00
68226;BME280;55045;49.410;11.030;2023-05-11T05:00:47;97798.66;;;10.10;100.00
68226;BME280;55045;49.410;11.030;2023-05-11T05:03:50;97798.63;;;9.95;100.00
68226;BME280;55045;49.410;11.030;2023-05-11T05:06:55;97806.56;;;9.92;100.00
68226;BME280;55045;49.410;11.030;2023-05-11T05:09:58;97739.47;;;9.52;100.00
68226;BME280;55045;49.410;11.030;2023-05-11T05:13:01;97807.31;;;9.94;100.00
68226;BME280;55045;49.410;11.030;2023-05-11T05:16:05;97807.81;;;10.00;100.00
68226;BME280;55045;49.410;11.030;2023-05-11T05:19:09;97802.34;;;10.06;100.00
68226;BME280;55045;49.410;11.030;2023-05-11T05:22:15;97812.63;;;9.91;100.00
68226;BME280;55045;49.410;11.030;2023-05-11T05:25:19;97817.56;;;10.13;100.00
68226;BME280;55045;49.410;11.030;2023-05-11T05:28:22;97817.41;;;9.98;100.00
68226;BME280;55045;49.410;11.030;2023-05-11T05:31:25;97821.69;;;10.17;100.00
68226;BME280;55045;49.410;11.030;2023-05-11T05:34:29;97826.28;;;10.12;100.00
68226;BME280;55045;49.410;11.030;2023-05-11T05:37:33;97835.28;;;10.22;100.00
68226;BME280;55045;49.410;11.030;2023-05-11T05:40:39;97829.38;;;10.01;100.00
68226;BME280;55045;49.410;11.030;2023-05-11T05:43:42;97827.50;;;10.22;100.00
68226;BME280;55045;49.410;11.030;2023-05-11T05:46:46;97835.59;;;10.49;100.00
68226;BME280;55045;49.410;11.030;2023-05-11T05:49:50;97835.94;;;10.43;100.00
68226;BME280;55045;49.410;11.030;2023-05-11T05:52:55;97844.19;;;10.33;100.00
68226;BME280;55045;49.410;11.030;2023-05-11T05:56:00;97836.72;;;10.27;100.00
68226;BME280;55045;49.410;11.030;2023-05-11T05:59:08;97840.31;;;10.58;100.00
68226;BME280;55045;49.410;11.030;2023-05-11T06:02:12;97842.72;;;10.28;100.00
68226;BME280;55045;49.410;11.030;2023-05-11T06:05:16;97843.56;;;10.28;100.00
68226;BME280;55045;49.410;11.030;2023-05-11T06:08:20;97836.50;;;10.32;100.00
68226;BME280;55045;49.410;11.030;2023-05-11T06:11:24;97838.91;;;10.18;100.00
68226;BME280;55045;49.410;11.030;2023-05-11T06:14:28;97836.22;;;10.19;100.00
68226;BME280;55045;49.410;11.030;2023-05-11T06:17:32;97843.31;;;10.16;100.00
68226;BME280;55045;49.410;11.030;2023-05-11T06:20:36;97843.06;;;10.22;100.00
68226;BME280;55045;49.410;11.030;2023-05-11T06:23:41;97842.13;;;10.23;100.00
68226;BME280;55045;49.410;11.030;2023-05-11T06:26:44;97844.66;;;10.24;100.00
68226;BME280;55045;49.410;11.030;2023-05-11T06:29:49;97844.09;;;10.18;100.00
68226;BME280;55045;49.410;11.030;2023-05-11T06:32:53;97841.50;;;10.18;100.00
68226;BME280;55045;49.410;11.030;2023-05-11T06:35:57;97843.25;;;10.34;100.00
68226;BME280;55045;49.410;11.030;2023-05-11T06:39:04;97838.47;;;10.27;100.00
68226;BME280;55045;49.410;11.030;2023-05-11T06:42:08;97834.78;;;10.31;100.00
68226;BME280;55045;49.410;11.030;2023-05-11T06:45:11;97841.88;;;10.27;100.00
68226;BME280;55045;49.410;11.030;2023-05-11T06:48:16;97847.81;;;10.62;100.00
68226;BME280;55045;49.410;11.030;2023-05-11T06:51:21;97840.88;;;10.47;100.00
68226;BME280;55045;49.410;11.030;2023-05-11T06:54:26;97842.44;;;10.34;100.00
68226;BME280;55045;49.410;11.030;2023-05-11T06:57:29;97840.75;;;10.66;100.00
68226;BME280;55045;49.410;11.030;2023-05-11T07:00:33;97839.09;;;10.48;100.00
68226;BME280;55045;49.410;11.030;2023-05-11T07:03:36;97837.44;;;10.47;100.00
68226;BME280;55045;49.410;11.030;2023-05-11T07:06:39;97843.41;;;10.31;100.00
68226;BME280;55045;49.410;11.030;2023-05-11T07:09:44;97844.09;;;10.35;100.00
68226;BME280;55045;49.410;11.030;2023-05-11T07:12:47;97847.28;;;10.40;100.00
68226;BME280;55045;49.410;11.030;2023-05-11T07:15:50;97846.16;;;10.28;100.00
68226;BME280;55045;49.410;11.030;2023-05-11T07:18:57;97847.34;;;10.72;100.00
68226;BME280;55045;49.410;11.030;2023-05-11T07:22:00;97843.06;;;10.22;100.00
68226;BME280;55045;49.410;11.030;2023-05-11T07:25:06;97846.06;;;10.30;100.00
68226;BME280;55045;49.410;11.030;2023-05-11T07:28:10;97847.25;;;10.24;100.00
68226;BME280;55045;49.410;11.030;2023-05-11T07:31:13;97846.50;;;10.21;100.00
68226;BME280;55045;49.410;11.030;2023-05-11T07:34:17;97838.34;;;10.11;100.00
68226;BME280;55045;49.410;11.030;2023-05-11T07:37:20;97831.81;;;10.38;100.00
68226;BME280;55045;49.410;11.030;2023-05-11T07:40:25;97847.34;;;10.72;100.00
68226;BME280;55045;49.410;11.030;2023-05-11T07:43:28;97857.09;;;10.51;100.00
68226;BME280;55045;49.410;11.030;2023-05-11T07:46:31;97860.34;;;10.87;100.00
68226;BME280;55045;49.410;11.030;2023-05-11T07:49:34;97848.59;;;10.64;100.00
68226;BME280;55045;49.410;11.030;2023-05-11T07:52:45;97853.00;;;10.62;100.00
68226;BME280;55045;49.410;11.030;2023-05-11T07:55:49;97849.41;;;10.49;100.00
68226;BME280;55045;49.410;11.030;2023-05-11T07:58:52;97851.38;;;10.77;100.00
68226;BME280;55045;49.410;11.030;2023-05-11T08:01:56;97849.63;;;10.78;100.00
68226;BME280;55045;49.410;11.030;2023-05-11T08:04:59;97847.94;;;10.77;100.00
68226;BME280;55045;49.410;11.030;2023-05-11T08:08:03;97853.63;;;10.67;100.00
68226;BME280;55045;49.410;11.030;2023-05-11T08:11:08;97847.50;;;10.53;100.00
68226;BME280;55045;49.410;11.030;2023-05-11T08:14:11;97854.25;;;10.88;100.00
68226;BME280;55045;49.410;11.030;2023-05-11T08:17:14;97855.13;;;10.72;100.00
68226;BME280;55045;49.410;11.030;2023-05-11T08:20:18;97862.34;;;10.49;100.00
68226;BME280;55045;49.410;11.030;2023-05-11T08:23:21;97865.13;;;10.62;100.00
68226;BME280;55045;49.410;11.030;2023-05-11T08:26:26;97856.13;;;10.53;100.00
68226;BME280;55045;49.410;11.030;2023-05-11T08:29:29;97856.34;;;10.49;100.00
68226;BME280;55045;49.410;11.030;2023-05-11T08:32:32;97858.50;;;10.74;100.00
68226;BME280;55045;49.410;11.030;2023-05-11T08:35:56;97856.53;;;10.61;100.00
68226;BME280;55045;49.410;11.030;2023-05-11T08:38:59;97852.88;;;10.65;100.00
68226;BME280;55045;49.410;11.030;2023-05-11T08:42:04;97851.19;;;10.64;100.00
68226;BME280;55045;49.410;11.030;2023-05-11T08:45:09;97849.00;;;10.73;100.00
68226;BME280;55045;49.410;11.030;2023-05-11T08:48:13;97845.19;;;10.80;100.00
68226;BME280;55045;49.410;11.030;2023-05-11T08:51:18;97849.56;;;10.95;100.00
68226;BME280;55045;49.410;11.030;2023-05-11T08:54:22;97857.00;;;10.85;100.00
68226;BME280;55045;49.410;11.030;2023-05-11T08:57:29;97849.00;;;10.73;100.00
68226;BME280;55045;49.410;11.030;2023-05-11T09:00:33;97851.59;;;10.73;100.00
68226;BME280;55045;49.410;11.030;2023-05-11T09:03:38;97862.63;;;11.09;100.00
68226;BME280;55045;49.410;11.030;2023-05-11T09:06:41;97850.06;;;10.86;100.00
68226;BME280;55045;49.410;11.030;2023-05-11T09:09:46;97851.91;;;10.84;100.00
68226;BME280;55045;49.410;11.030;2023-05-11T09:12:50;97852.91;;;10.97;100.00
68226;BME280;55045;49.410;11.030;2023-05-11T09:15:53;97851.50;;;11.07;100.00
68226;BME280;55045;49.410;11.030;2023-05-11T09:18:59;97852.56;;;11.03;100.00
68226;BME280;55045;49.410;11.030;2023-05-11T09:22:03;97847.88;;;10.78;100.00
68226;BME280;55045;49.410;11.030;2023-05-11T09:25:10;97852.88;;;10.81;100.00
68226;BME280;55045;49.410;11.030;2023-05-11T09:28:14;97856.56;;;10.77;100.00
68226;BME280;55045;49.410;11.030;2023-05-11T09:34:39;97858.34;;;11.08;100.00
68226;BME280;55045;49.410;11.030;2023-05-11T09:37:56;97826.78;;;11.00;100.00
68226;BME280;55045;49.410;11.030;2023-05-11T09:41:00;97857.25;;;11.12;100.00
68226;BME280;55045;49.410;11.030;2023-05-11T09:44:09;97850.75;;;11.05;100.00
68226;BME280;55045;49.410;11.030;2023-05-11T09:47:14;97844.88;;;11.17;100.00
68226;BME280;55045;49.410;11.030;2023-05-11T09:50:19;97856.59;;;11.24;100.00
68226;BME280;55045;49.410;11.030;2023-05-11T09:53:39;97819.56;;;11.37;100.00
68226;BME280;55045;49.410;11.030;2023-05-11T09:56:46;97847.91;;;10.94;100.00
68226;BME280;55045;49.410;11.030;2023-05-11T09:59:49;97848.03;;;10.91;100.00
68226;BME280;55045;49.410;11.030;2023-05-11T10:03:00;97836.16;;;10.87;100.00
68226;BME280;55045;49.410;11.030;2023-05-11T10:06:06;97820.44;;;11.06;100.00
68226;BME280;55045;49.410;11.030;2023-05-11T10:09:10;97841.53;;;11.15;100.00
68226;BME280;55045;49.410;11.030;2023-05-11T10:12:13;97841.03;;;11.24;100.00
68226;BME280;55045;49.410;11.030;2023-05-11T10:15:18;97835.47;;;11.31;100.00
68226;BME280;55045;49.410;11.030;2023-05-11T10:18:26;97832.97;;;11.13;100.00
68226;BME280;55045;49.410;11.030;2023-05-11T10:21:31;97818.16;;;11.31;100.00
68226;BME280;55045;49.410;11.030;2023-05-11T10:24:35;97819.00;;;11.16;100.00
68226;BME280;55045;49.410;11.030;2023-05-11T10:27:39;97826.13;;;11.28;100.00
68226;BME280;55045;49.410;11.030;2023-05-11T10:30:43;97820.50;;;11.36;100.00
68226;BME280;55045;49.410;11.030;2023-05-11T10:33:48;97817.72;;;11.23;100.00
68226;BME280;55045;49.410;11.030;2023-05-11T10:36:54;97822.00;;;11.40;100.00
68226;BME280;55045;49.410;11.030;2023-05-11T10:39:58;97815.69;;;11.44;100.00
68226;BME280;55045;49.410;11.030;2023-05-11T10:43:27;97824.91;;;11.49;100.00
68226;BME280;55045;49.410;11.030;2023-05-11T10:46:43;97810.72;;;11.09;100.00
68226;BME280;55045;49.410;11.030;2023-05-11T10:50:04;97809.72;;;10.96;100.00
68226;BME280;55045;49.410;11.030;2023-05-11T10:53:36;97805.69;;;11.22;100.00
68226;BME280;55045;49.410;11.030;2023-05-11T10:56:55;97797.97;;;11.20;100.00
68226;BME280;55045;49.410;11.030;2023-05-11T11:00:11;97798.63;;;11.40;100.00
68226;BME280;55045;49.410;11.030;2023-05-11T11:03:21;97801.78;;;11.15;100.00
68226;BME280;55045;49.410;11.030;2023-05-11T11:06:24;97804.66;;;11.40;100.00
68226;BME280;55045;49.410;11.030;2023-05-11T11:09:49;97759.91;;;11.05;100.00
68226;BME280;55045;49.410;11.030;2023-05-11T11:13:00;97813.41;;;11.08;100.00
68226;BME280;55045;49.410;11.030;2023-05-11T11:16:08;97803.31;;;11.33;100.00
68226;BME280;55045;49.410;11.030;2023-05-11T11:19:36;97804.78;;;11.53;100.00
68226;BME280;55045;49.410;11.030;2023-05-11T11:22:42;97809.69;;;11.28;100.00
68226;BME280;55045;49.410;11.030;2023-05-11T11:25:52;97809.78;;;11.26;100.00
68226;BME280;55045;49.410;11.030;2023-05-11T11:29:11;97803.03;;;11.53;100.00
68226;BME280;55045;49.410;11.030;2023-05-11T11:32:23;97812.53;;;11.23;100.00
68226;BME280;55045;49.410;11.030;2023-05-11T11:35:45;97802.56;;;11.31;100.00
68226;BME280;55045;49.410;11.030;2023-05-11T11:38:56;97808.22;;;11.53;100.00
68226;BME280;55045;49.410;11.030;2023-05-11T11:42:03;97804.00;;;11.37;100.00
68226;BME280;55045;49.410;11.030;2023-05-11T11:45:27;97812.34;;;11.42;100.00
68226;BME280;55045;49.410;11.030;2023-05-11T11:48:33;97809.81;;;11.56;100.00
68226;BME280;55045;49.410;11.030;2023-05-11T11:51:37;97813.78;;;11.47;100.00
68226;BME280;55045;49.410;11.030;2023-05-11T11:54:43;97816.00;;;11.53;100.00
68226;BME280;55045;49.410;11.030;2023-05-11T11:57:48;97823.75;;;11.55;100.00
68226;BME280;55045;49.410;11.030;2023-05-11T12:00:53;97813.63;;;11.80;100.00
68226;BME280;55045;49.410;11.030;2023-05-11T12:07:52;97815.34;;;11.66;100.00
68226;BME280;55045;49.410;11.030;2023-05-11T12:10:56;97813.03;;;11.30;100.00
68226;BME280;55045;49.410;11.030;2023-05-11T12:14:01;97808.28;;;11.68;100.00
68226;BME280;55045;49.410;11.030;2023-05-11T12:17:07;97820.31;;;11.54;100.00
68226;BME280;55045;49.410;11.030;2023-05-11T12:20:15;97824.16;;;11.32;100.00
68226;BME280;55045;49.410;11.030;2023-05-11T12:23:19;97819.75;;;11.18;100.00
68226;BME280;55045;49.410;11.030;2023-05-11T12:26:25;97828.94;;;11.23;100.00
68226;BME280;55045;49.410;11.030;2023-05-11T12:29:29;97827.78;;;11.13;100.00
68226;BME280;55045;49.410;11.030;2023-05-11T12:32:33;97830.97;;;11.03;100.00
68226;BME280;55045;49.410;11.030;2023-05-11T12:35:36;97830.28;;;11.31;100.00
68226;BME280;55045;49.410;11.030;2023-05-11T12:38:44;97839.69;;;11.17;100.00
68226;BME280;55045;49.410;11.030;2023-05-11T12:41:49;97835.31;;;11.02;100.00
68226;BME280;55045;49.410;11.030;2023-05-11T12:44:54;97841.19;;;11.06;100.00
68226;BME280;55045;49.410;11.030;2023-05-11T12:47:58;97827.38;;;11.05;100.00
68226;BME280;55045;49.410;11.030;2023-05-11T12:51:02;97831.81;;;11.03;100.00
68226;BME280;55045;49.410;11.030;2023-05-11T12:54:06;97824.94;;;11.02;100.00
68226;BME280;55045;49.410;11.030;2023-05-11T12:57:22;97821.44;;;11.35;100.00
68226;BME280;55045;49.410;11.030;2023-05-11T13:00:27;97821.00;;;11.27;100.00
68226;BME280;55045;49.410;11.030;2023-05-11T13:03:31;97818.09;;;11.17;100.00
68226;BME280;55045;49.410;11.030;2023-05-11T13:06:36;97819.72;;;11.34;100.00
68226;BME280;55045;49.410;11.030;2023-05-11T13:09:40;97820.03;;;11.43;100.00
68226;BME280;55045;49.410;11.030;2023-05-11T13:12:47;97812.53;;;11.39;100.00
68226;BME280;55045;49.410;11.030;2023-05-11T13:15:52;97815.53;;;11.47;100.00
68226;BME280;55045;49.410;11.030;2023-05-11T13:18:57;97809.59;;;11.29;100.00
68226;BME280;55045;49.410;11.030;2023-05-11T13:22:00;97803.91;;;11.68;100.00
68226;BME280;55045;49.410;11.030;2023-05-11T13:25:04;97807.00;;;11.45;100.00
68226;BME280;55045;49.410;11.030;2023-05-11T13:28:10;97808.16;;;11.39;100.00
68226;BME280;55045;49.410;11.030;2023-05-11T13:31:15;97807.00;;;11.29;100.00
68226;BME280;55045;49.410;11.030;2023-05-11T13:34:19;97787.09;;;11.30;100.00
68226;BME280;55045;49.410;11.030;2023-05-11T13:37:22;97811.03;;;11.35;100.00
68226;BME280;55045;49.410;11.030;2023-05-11T13:40:25;97813.06;;;11.14;100.00
68226;BME280;55045;49.410;11.030;2023-05-11T13:43:28;97807.34;;;11.23;100.00
68226;BME280;55045;49.410;11.030;2023-05-11T13:46:33;97806.34;;;11.25;100.00
68226;BME280;55045;49.410;11.030;2023-05-11T13:49:37;97808.34;;;11.20;100.00
68226;BME280;55045;49.410;11.030;2023-05-11T13:52:40;97807.88;;;11.14;100.00
68226;BME280;55045;49.410;11.030;2023-05-11T13:55:43;97809.78;;;11.26;100.00
68226;BME280;55045;49.410;11.030;2023-05-11T13:58:46;97799.13;;;11.31;100.00
68226;BME280;55045;49.410;11.030;2023-05-11T14:01:51;97805.59;;;11.23;100.00
68226;BME280;55045;49.410;11.030;2023-05-11T14:04:54;97795.97;;;11.25;100.00
68226;BME280;55045;49.410;11.030;2023-05-11T14:07:58;97787.81;;;11.47;100.00
68226;BME280;55045;49.410;11.030;2023-05-11T14:11:01;97796.53;;;11.46;100.00
68226;BME280;55045;49.410;11.030;2023-05-11T14:14:08;97790.63;;;10.97;100.00
68226;BME280;55045;49.410;11.030;2023-05-11T14:17:14;97793.97;;;10.99;100.00
68226;BME280;55045;49.410;11.030;2023-05-11T14:20:18;97792.09;;;11.33;100.00
68226;BME280;55045;49.410;11.030;2023-05-11T14:23:21;97785.81;;;11.37;100.00
68226;BME280;55045;49.410;11.030;2023-05-11T14:26:24;97794.25;;;11.56;100.00
68226;BME280;55045;49.410;11.030;2023-05-11T14:29:28;97770.09;;;11.24;100.00
68226;BME280;55045;49.410;11.030;2023-05-11T14:32:33;97788.31;;;11.38;100.00
68226;BME280;55045;49.410;11.030;2023-05-11T14:35:36;97784.81;;;11.23;100.00
68226;BME280;55045;49.410;11.030;2023-05-11T14:38:41;97778.28;;;11.32;100.00
68226;BME280;55045;49.410;11.030;2023-05-11T14:41:44;97774.09;;;11.30;100.00
68226;BME280;55045;49.410;11.030;2023-05-11T14:44:47;97780.13;;;11.30;100.00
68226;BME280;55045;49.410;11.030;2023-05-11T14:47:52;97778.38;;;11.31;100.00
68226;BME280;55045;49.410;11.030;2023-05-11T14:50:55;97774.19;;;11.28;100.00
68226;BME280;55045;49.410;11.030;2023-05-11T14:53:59;97777.34;;;11.63;100.00
68226;BME280;55045;49.410;11.030;2023-05-11T14:57:03;97778.50;;;11.43;100.00
68226;BME280;55045;49.410;11.030;2023-05-11T15:00:07;97778.38;;;11.31;100.00
68226;BME280;55045;49.410;11.030;2023-05-11T15:03:12;97777.34;;;11.63;100.00
68226;BME280;55045;49.410;11.030;2023-05-11T15:06:15;97775.69;;;11.32;100.00
68226;BME280;55045;49.410;11.030;2023-05-11T15:09:22;97769.75;;;11.30;100.00
68226;BME280;55045;49.410;11.030;2023-05-11T15:12:26;97756.63;;;11.17;100.00
68226;BME280;55045;49.410;11.030;2023-05-11T15:15:32;97768.56;;;11.36;100.00
68226;BME280;55045;49.410;11.030;2023-05-11T15:18:36;97783.75;;;11.28;100.00
68226;BME280;55045;49.410;11.030;2023-05-11T15:21:42;97776.09;;;11.40;100.00
68226;BME280;55045;49.410;11.030;2023-05-11T15:24:45;97763.59;;;11.47;100.00
68226;BME280;55045;49.410;11.030;2023-05-11T15:27:48;97785.00;;;11.20;100.00
68226;BME280;55045;49.410;11.030;2023-05-11T15:34:38;97733.72;;;10.78;100.00
68226;BME280;55045;49.410;11.030;2023-05-11T15:37:56;97789.94;;;11.09;100.00
68226;BME280;55045;49.410;11.030;2023-05-11T15:40:59;97786.44;;;11.10;100.00
68226;BME280;55045;49.410;11.030;2023-05-11T15:44:07;97790.47;;;11.16;100.00
68226;BME280;55045;49.410;11.030;2023-05-11T15:47:11;97781.25;;;11.10;100.00
68226;BME280;55045;49.410;11.030;2023-05-11T15:50:15;97784.00;;;11.07;100.00
68226;BME280;55045;49.410;11.030;2023-05-11T15:53:18;97787.78;;;11.17;100.00
68226;BME280;55045;49.410;11.030;2023-05-11T15:56:22;97786.03;;;11.48;100.00
68226;BME280;55045;49.410;11.030;2023-05-11T15:59:25;97788.28;;;11.08;100.00
68226;BME280;55045;49.410;11.030;2023-05-11T16:02:28;97771.53;;;10.98;100.00
68226;BME280;55045;49.410;11.030;2023-05-11T16:05:33;97780.91;;;11.16;100.00
68226;BME280;55045;49.410;11.030;2023-05-11T16:08:37;97787.53;;;11.06;100.00
68226;BME280;55045;49.410;11.030;2023-05-11T16:11:40;97789.88;;;10.95;100.00